sensor_id;sensor_type;location;lat;lon;timestamp;P1;durP1;ratioP1;P2;durP2;ratioP2
39140;SDS011;24875;48.436;10.298;2023-05-07T00:02:22;2.40;;;1.10;;
39140;SDS011;24875;48.436;10.298;2023-05-07T00:04:48;1.70;;;0.95;;
39140;SDS011;24875;48.436;10.298;2023-05-07T00:07:15;1.63;;;1.13;;
39140;SDS011;24875;48.436;10.298;2023-05-07T00:09:41;0.63;;;0.63;;
39140;SDS011;24875;48.436;10.298;2023-05-07T00:12:08;1.85;;;1.10;;
39140;SDS011;24875;48.436;10.298;2023-05-07T00:14:34;1.15;;;0.90;;
39140;SDS011;24875;48.436;10.298;2023-05-07T00:17:02;1.27;;;1.02;;
39140;SDS011;24875;48.436;10.298;2023-05-07T00:19:29;2.13;;;1.60;;
39140;SDS011;24875;48.436;10.298;2023-05-07T00:21:55;2.55;;;0.85;;
39140;SDS011;24875;48.436;10.298;2023-05-07T00:24:23;1.75;;;1.35;;
39140;SDS011;24875;48.436;10.298;2023-05-07T00:26:50;0.88;;;0.60;;
39140;SDS011;24875;48.436;10.298;2023-05-07T00:29:17;1.25;;;1.00;;
39140;SDS011;24875;48.436;10.298;2023-05-07T00:31:44;1.45;;;1.00;;
39140;SDS011;24875;48.436;10.298;2023-05-07T00:34:12;1.15;;;1.05;;
39140;SDS011;24875;48.436;10.298;2023-05-07T00:36:38;0.93;;;0.80;;
39140;SDS011;24875;48.436;10.298;2023-05-07T00:39:05;1.48;;;1.17;;
39140;SDS011;24875;48.436;10.298;2023-05-07T00:41:31;1.42;;;1.10;;
39140;SDS011;24875;48.436;10.298;2023-05-07T00:43:58;1.65;;;1.20;;
39140;SDS011;24875;48.436;10.298;2023-05-07T00:46:27;1.25;;;1.10;;
39140;SDS011;24875;48.436;10.298;2023-05-07T00:48:55;2.45;;;1.20;;
39140;SDS011;24875;48.436;10.298;2023-05-07T00:51:23;1.80;;;0.80;;
39140;SDS011;24875;48.436;10.298;2023-05-07T00:53:52;2.03;;;1.05;;
39140;SDS011;24875;48.436;10.298;2023-05-07T00:56:20;2.15;;;1.33;;
39140;SDS011;24875;48.436;10.298;2023-05-07T00:58:46;1.77;;;1.25;;
39140;SDS011;24875;48.436;10.298;2023-05-07T01:01:13;1.95;;;1.45;;
39140;SDS011;24875;48.436;10.298;2023-05-07T01:03:40;1.27;;;1.00;;
39140;SDS011;24875;48.436;10.298;2023-05-07T01:06:07;1.30;;;0.90;;
39140;SDS011;24875;48.436;10.298;2023-05-07T01:08:39;2.53;;;1.42;;
39140;SDS011;24875;48.436;10.298;2023-05-07T01:11:06;2.28;;;1.50;;
39140;SDS011;24875;48.436;10.298;2023-05-07T01:13:33;1.30;;;1.10;;
39140;SDS011;24875;48.436;10.298;2023-05-07T01:16:00;1.50;;;1.08;;
39140;SDS011;24875;48.436;10.298;2023-05-07T01:18:27;1.77;;;1.33;;
39140;SDS011;24875;48.436;10.298;2023-05-07T01:20:55;1.95;;;1.27;;
39140;SDS011;24875;48.436;10.298;2023-05-07T01:23:25;1.60;;;1.10;;
39140;SDS011;24875;48.436;10.298;2023-05-07T01:25:53;1.42;;;1.23;;
39140;SDS011;24875;48.436;10.298;2023-05-07T01:28:20;3.20;;;1.73;;
39140;SDS011;24875;48.436;10.298;2023-05-07T01:30:48;2.60;;;1.40;;
39140;SDS011;24875;48.436;10.298;2023-05-07T01:33:18;1.67;;;1.27;;
39140;SDS011;24875;48.436;10.298;2023-05-07T01:35:47;1.65;;;1.55;;
39140;SDS011;24875;48.436;10.298;2023-05-07T01:38:15;2.30;;;1.60;;
39140;SDS011;24875;48.436;10.298;2023-05-07T01:40:43;2.03;;;1.27;;
39140;SDS011;24875;48.436;10.298;2023-05-07T01:43:10;2.30;;;1.30;;
39140;SDS011;24875;48.436;10.298;2023-05-07T01:45:36;2.13;;;1.35;;
39140;SDS011;24875;48.436;10.298;2023-05-07T01:48:05;3.60;;;1.35;;
39140;SDS011;24875;48.436;10.298;2023-05-07T01:50:32;2.15;;;1.35;;
39140;SDS011;24875;48.436;10.298;2023-05-07T01:53:00;5.97;;;1.35;;
39140;SDS011;24875;48.436;10.298;2023-05-07T01:55:27;2.13;;;1.60;;
39140;SDS011;24875;48.436;10.298;2023-05-07T01:57:55;1.65;;;1.52;;
39140;SDS011;24875;48.436;10.298;2023-05-07T02:00:22;1.83;;;1.58;;
39140;SDS011;24875;48.436;10.298;2023-05-07T02:02:49;3.30;;;2.10;;
39140;SDS011;24875;48.436;10.298;2023-05-07T02:05:16;3.53;;;1.52;;
39140;SDS011;24875;48.436;10.298;2023-05-07T02:07:43;1.85;;;1.30;;
39140;SDS011;24875;48.436;10.298;2023-05-07T02:10:09;2.03;;;1.50;;
39140;SDS011;24875;48.436;10.298;2023-05-07T02:12:36;2.78;;;1.60;;
39140;SDS011;24875;48.436;10.298;2023-05-07T02:15:04;2.87;;;1.73;;
39140;SDS011;24875;48.436;10.298;2023-05-07T02:17:31;2.15;;;1.75;;
39140;SDS011;24875;48.436;10.298;2023-05-07T02:19:58;3.28;;;2.08;;
39140;SDS011;24875;48.436;10.298;2023-05-07T02:22:24;3.92;;;2.10;;
39140;SDS011;24875;48.436;10.298;2023-05-07T02:24:51;2.40;;;1.45;;
39140;SDS011;24875;48.436;10.298;2023-05-07T02:27:17;3.30;;;1.98;;
39140;SDS011;24875;48.436;10.298;2023-05-07T02:29:44;2.40;;;1.70;;
39140;SDS011;24875;48.436;10.298;2023-05-07T02:32:12;4.65;;;1.55;;
39140;SDS011;24875;48.436;10.298;2023-05-07T02:34:38;3.13;;;1.98;;
39140;SDS011;24875;48.436;10.298;2023-05-07T02:37:04;3.30;;;2.05;;
39140;SDS011;24875;48.436;10.298;2023-05-07T02:39:31;2.23;;;1.63;;
39140;SDS011;24875;48.436;10.298;2023-05-07T02:41:57;2.88;;;1.58;;
39140;SDS011;24875;48.436;10.298;2023-05-07T02:44:24;1.88;;;1.40;;
39140;SDS011;24875;48.436;10.298;2023-05-07T02:46:50;5.55;;;1.50;;
39140;SDS011;24875;48.436;10.298;2023-05-07T02:49:18;2.30;;;1.40;;
39140;SDS011;24875;48.436;10.298;2023-05-07T02:51:44;2.15;;;1.27;;
39140;SDS011;24875;48.436;10.298;2023-05-07T02:54:11;2.83;;;1.77;;
39140;SDS011;24875;48.436;10.298;2023-05-07T02:56:37;1.83;;;1.30;;
39140;SDS011;24875;48.436;10.298;2023-05-07T02:59:04;1.53;;;1.20;;
39140;SDS011;24875;48.436;10.298;2023-05-07T03:01:30;2.92;;;1.52;;
39140;SDS011;24875;48.436;10.298;2023-05-07T03:03:56;2.38;;;1.98;;
39140;SDS011;24875;48.436;10.298;2023-05-07T03:06:24;1.83;;;1.33;;
39140;SDS011;24875;48.436;10.298;2023-05-07T03:08:51;2.10;;;1.70;;
39140;SDS011;24875;48.436;10.298;2023-05-07T03:11:17;2.00;;;1.13;;
39140;SDS011;24875;48.436;10.298;2023-05-07T03:13:44;1.73;;;1.40;;
39140;SDS011;24875;48.436;10.298;2023-05-07T03:16:11;2.40;;;1.75;;
39140;SDS011;24875;48.436;10.298;2023-05-07T03:18:37;4.57;;;1.83;;
39140;SDS011;24875;48.436;10.298;2023-05-07T03:21:04;2.10;;;1.90;;
39140;SDS011;24875;48.436;10.298;2023-05-07T03:23:31;2.15;;;1.45;;
39140;SDS011;24875;48.436;10.298;2023-05-07T03:25:58;2.45;;;1.42;;
39140;SDS011;24875;48.436;10.298;2023-05-07T03:28:24;2.07;;;1.53;;
39140;SDS011;24875;48.436;10.298;2023-05-07T03:30:51;3.93;;;1.93;;
39140;SDS011;24875;48.436;10.298;2023-05-07T03:33:17;4.57;;;1.38;;
39140;SDS011;24875;48.436;10.298;2023-05-07T03:35:44;2.67;;;1.42;;
39140;SDS011;24875;48.436;10.298;2023-05-07T03:38:10;4.20;;;2.37;;
39140;SDS011;24875;48.436;10.298;2023-05-07T03:40:38;2.45;;;1.33;;
39140;SDS011;24875;48.436;10.298;2023-05-07T03:43:05;3.30;;;1.57;;
39140;SDS011;24875;48.436;10.298;2023-05-07T03:45:31;2.77;;;2.10;;
39140;SDS011;24875;48.436;10.298;2023-05-07T03:47:58;1.05;;;0.95;;
39140;SDS011;24875;48.436;10.298;2023-05-07T03:50:24;3.95;;;1.20;;
39140;SDS011;24875;48.436;10.298;2023-05-07T03:52:51;1.70;;;1.60;;
39140;SDS011;24875;48.436;10.298;2023-05-07T03:55:17;3.83;;;1.67;;
39140;SDS011;24875;48.436;10.298;2023-05-07T03:57:45;1.93;;;1.70;;
39140;SDS011;24875;48.436;10.298;2023-05-07T04:00:12;2.07;;;1.50;;
39140;SDS011;24875;48.436;10.298;2023-05-07T04:02:39;2.53;;;1.13;;
39140;SDS011;24875;48.436;10.298;2023-05-07T04:05:06;1.83;;;1.20;;
39140;SDS011;24875;48.436;10.298;2023-05-07T04:07:32;1.50;;;1.03;;
39140;SDS011;24875;48.436;10.298;2023-05-07T04:09:59;4.67;;;1.50;;
39140;SDS011;24875;48.436;10.298;2023-05-07T04:12:25;3.17;;;1.58;;
39140;SDS011;24875;48.436;10.298;2023-05-07T04:14:53;1.57;;;1.13;;
39140;SDS011;24875;48.436;10.298;2023-05-07T04:17:20;2.27;;;1.60;;
39140;SDS011;24875;48.436;10.298;2023-05-07T04:19:46;2.63;;;1.70;;
39140;SDS011;24875;48.436;10.298;2023-05-07T04:22:12;1.97;;;1.10;;
39140;SDS011;24875;48.436;10.298;2023-05-07T04:24:39;1.93;;;1.30;;
39140;SDS011;24875;48.436;10.298;2023-05-07T04:27:05;1.97;;;1.30;;
39140;SDS011;24875;48.436;10.298;2023-05-07T04:29:32;4.20;;;1.87;;
39140;SDS011;24875;48.436;10.298;2023-05-07T04:32:00;2.08;;;1.20;;
39140;SDS011;24875;48.436;10.298;2023-05-07T04:34:26;2.63;;;1.53;;
39140;SDS011;24875;48.436;10.298;2023-05-07T04:36:53;3.57;;;1.77;;
39140;SDS011;24875;48.436;10.298;2023-05-07T04:39:19;5.30;;;1.60;;
39140;SDS011;24875;48.436;10.298;2023-05-07T04:41:45;4.07;;;1.77;;
39140;SDS011;24875;48.436;10.298;2023-05-07T04:44:12;2.07;;;1.60;;
39140;SDS011;24875;48.436;10.298;2023-05-07T04:46:38;2.90;;;1.67;;
39140;SDS011;24875;48.436;10.298;2023-05-07T04:49:06;1.73;;;1.40;;
39140;SDS011;24875;48.436;10.298;2023-05-07T04:51:32;1.50;;;1.40;;
39140;SDS011;24875;48.436;10.298;2023-05-07T04:53:59;2.03;;;1.43;;
39140;SDS011;24875;48.436;10.298;2023-05-07T04:56:27;2.77;;;2.00;;
39140;SDS011;24875;48.436;10.298;2023-05-07T04:58:53;2.97;;;2.20;;
39140;SDS011;24875;48.436;10.298;2023-05-07T05:01:20;4.18;;;2.25;;
39140;SDS011;24875;48.436;10.298;2023-05-07T05:03:46;2.87;;;1.90;;
39140;SDS011;24875;48.436;10.298;2023-05-07T05:06:14;9.60;;;1.57;;
39140;SDS011;24875;48.436;10.298;2023-05-07T05:08:40;3.17;;;2.17;;
39140;SDS011;24875;48.436;10.298;2023-05-07T05:11:07;3.42;;;1.90;;
39140;SDS011;24875;48.436;10.298;2023-05-07T05:13:33;2.70;;;1.97;;
39140;SDS011;24875;48.436;10.298;2023-05-07T05:16:00;5.03;;;1.98;;
39140;SDS011;24875;48.436;10.298;2023-05-07T05:18:26;3.63;;;1.70;;
39140;SDS011;24875;48.436;10.298;2023-05-07T05:20:53;3.72;;;1.98;;
39140;SDS011;24875;48.436;10.298;2023-05-07T05:23:20;2.97;;;2.05;;
39140;SDS011;24875;48.436;10.298;2023-05-07T05:25:47;3.33;;;1.98;;
39140;SDS011;24875;48.436;10.298;2023-05-07T05:28:13;3.33;;;2.27;;
39140;SDS011;24875;48.436;10.298;2023-05-07T05:30:40;9.00;;;1.77;;
39140;SDS011;24875;48.436;10.298;2023-05-07T05:33:06;2.72;;;1.80;;
39140;SDS011;24875;48.436;10.298;2023-05-07T05:35:33;3.47;;;2.17;;
39140;SDS011;24875;48.436;10.298;2023-05-07T05:38:00;2.78;;;1.92;;
39140;SDS011;24875;48.436;10.298;2023-05-07T05:40:28;2.97;;;1.75;;
39140;SDS011;24875;48.436;10.298;2023-05-07T05:42:54;2.97;;;1.88;;
39140;SDS011;24875;48.436;10.298;2023-05-07T05:45:21;2.90;;;1.80;;
39140;SDS011;24875;48.436;10.298;2023-05-07T05:47:47;2.08;;;1.45;;
39140;SDS011;24875;48.436;10.298;2023-05-07T05:50:14;3.22;;;2.10;;
39140;SDS011;24875;48.436;10.298;2023-05-07T05:52:40;2.88;;;2.03;;
39140;SDS011;24875;48.436;10.298;2023-05-07T05:55:07;5.53;;;2.42;;
39140;SDS011;24875;48.436;10.298;2023-05-07T05:57:35;3.55;;;2.08;;
39140;SDS011;24875;48.436;10.298;2023-05-07T06:00:02;2.58;;;1.65;;
39140;SDS011;24875;48.436;10.298;2023-05-07T06:02:30;5.00;;;3.40;;
39140;SDS011;24875;48.436;10.298;2023-05-07T06:04:56;4.53;;;2.40;;
39140;SDS011;24875;48.436;10.298;2023-05-07T06:07:22;6.47;;;2.00;;
39140;SDS011;24875;48.436;10.298;2023-05-07T06:09:49;7.75;;;2.30;;
39140;SDS011;24875;48.436;10.298;2023-05-07T06:12:15;3.10;;;1.67;;
39140;SDS011;24875;48.436;10.298;2023-05-07T06:14:43;2.15;;;1.85;;
39140;SDS011;24875;48.436;10.298;2023-05-07T06:17:10;3.40;;;1.90;;
39140;SDS011;24875;48.436;10.298;2023-05-07T06:19:36;2.08;;;1.38;;
39140;SDS011;24875;48.436;10.298;2023-05-07T06:22:03;3.78;;;1.98;;
39140;SDS011;24875;48.436;10.298;2023-05-07T06:24:29;4.50;;;2.33;;
39140;SDS011;24875;48.436;10.298;2023-05-07T06:26:56;2.78;;;1.70;;
39140;SDS011;24875;48.436;10.298;2023-05-07T06:29:23;2.17;;;1.88;;
39140;SDS011;24875;48.436;10.298;2023-05-07T06:31:52;6.28;;;2.38;;
39140;SDS011;24875;48.436;10.298;2023-05-07T06:34:18;1.58;;;1.35;;
39140;SDS011;24875;48.436;10.298;2023-05-07T06:36:44;5.63;;;2.15;;
39140;SDS011;24875;48.436;10.298;2023-05-07T06:39:11;3.20;;;1.73;;
39140;SDS011;24875;48.436;10.298;2023-05-07T06:41:37;2.50;;;2.00;;
39140;SDS011;24875;48.436;10.298;2023-05-07T06:44:04;4.03;;;2.55;;
39140;SDS011;24875;48.436;10.298;2023-05-07T06:46:31;6.57;;;2.78;;
39140;SDS011;24875;48.436;10.298;2023-05-07T06:48:58;2.92;;;2.22;;
39140;SDS011;24875;48.436;10.298;2023-05-07T06:51:25;3.30;;;2.15;;
39140;SDS011;24875;48.436;10.298;2023-05-07T06:53:51;3.20;;;2.05;;
39140;SDS011;24875;48.436;10.298;2023-05-07T06:56:18;3.85;;;1.98;;
39140;SDS011;24875;48.436;10.298;2023-05-07T06:58:44;4.43;;;2.55;;
39140;SDS011;24875;48.436;10.298;2023-05-07T07:01:11;3.92;;;2.55;;
39140;SDS011;24875;48.436;10.298;2023-05-07T07:03:37;2.20;;;1.73;;
39140;SDS011;24875;48.436;10.298;2023-05-07T07:06:05;3.40;;;1.58;;
39140;SDS011;24875;48.436;10.298;2023-05-07T07:08:32;3.03;;;1.98;;
39140;SDS011;24875;48.436;10.298;2023-05-07T07:10:59;5.30;;;1.73;;
39140;SDS011;24875;48.436;10.298;2023-05-07T07:13:25;4.57;;;2.15;;
39140;SDS011;24875;48.436;10.298;2023-05-07T07:15:52;5.25;;;2.88;;
39140;SDS011;24875;48.436;10.298;2023-05-07T07:18:18;4.35;;;2.17;;
39140;SDS011;24875;48.436;10.298;2023-05-07T07:20:45;3.63;;;1.95;;
39140;SDS011;24875;48.436;10.298;2023-05-07T07:23:13;3.38;;;2.20;;
39140;SDS011;24875;48.436;10.298;2023-05-07T07:25:39;4.03;;;1.67;;
39140;SDS011;24875;48.436;10.298;2023-05-07T07:28:06;2.67;;;2.13;;
39140;SDS011;24875;48.436;10.298;2023-05-07T07:30:32;3.20;;;1.85;;
39140;SDS011;24875;48.436;10.298;2023-05-07T07:32:59;4.03;;;2.22;;
39140;SDS011;24875;48.436;10.298;2023-05-07T07:35:27;3.97;;;2.22;;
39140;SDS011;24875;48.436;10.298;2023-05-07T07:37:53;5.40;;;2.20;;
39140;SDS011;24875;48.436;10.298;2023-05-07T07:40:21;4.35;;;2.30;;
39140;SDS011;24875;48.436;10.298;2023-05-07T07:42:48;4.38;;;2.50;;
39140;SDS011;24875;48.436;10.298;2023-05-07T07:45:14;2.88;;;2.10;;
39140;SDS011;24875;48.436;10.298;2023-05-07T07:47:40;3.22;;;1.90;;
39140;SDS011;24875;48.436;10.298;2023-05-07T07:50:07;3.28;;;2.17;;
39140;SDS011;24875;48.436;10.298;2023-05-07T07:52:35;4.10;;;2.15;;
39140;SDS011;24875;48.436;10.298;2023-05-07T07:55:01;5.07;;;1.90;;
39140;SDS011;24875;48.436;10.298;2023-05-07T07:57:29;5.93;;;2.15;;
39140;SDS011;24875;48.436;10.298;2023-05-07T07:59:56;3.83;;;2.10;;
39140;SDS011;24875;48.436;10.298;2023-05-07T08:02:22;3.35;;;2.05;;
39140;SDS011;24875;48.436;10.298;2023-05-07T08:04:49;4.45;;;2.50;;
39140;SDS011;24875;48.436;10.298;2023-05-07T08:07:15;3.40;;;2.08;;
39140;SDS011;24875;48.436;10.298;2023-05-07T08:09:43;2.03;;;1.45;;
39140;SDS011;24875;48.436;10.298;2023-05-07T08:12:10;4.03;;;1.80;;
39140;SDS011;24875;48.436;10.298;2023-05-07T08:14:37;3.38;;;2.15;;
39140;SDS011;24875;48.436;10.298;2023-05-07T08:17:04;3.10;;;1.90;;
39140;SDS011;24875;48.436;10.298;2023-05-07T08:19:30;3.15;;;1.92;;
39140;SDS011;24875;48.436;10.298;2023-05-07T08:21:57;4.88;;;2.38;;
39140;SDS011;24875;48.436;10.298;2023-05-07T08:24:23;3.92;;;1.77;;
39140;SDS011;24875;48.436;10.298;2023-05-07T08:26:50;4.05;;;2.60;;
39140;SDS011;24875;48.436;10.298;2023-05-07T08:29:16;4.07;;;2.40;;
39140;SDS011;24875;48.436;10.298;2023-05-07T08:31:44;3.25;;;2.10;;
39140;SDS011;24875;48.436;10.298;2023-05-07T08:34:10;3.33;;;2.05;;
39140;SDS011;24875;48.436;10.298;2023-05-07T08:36:37;2.15;;;1.65;;
39140;SDS011;24875;48.436;10.298;2023-05-07T08:39:03;3.00;;;2.10;;
39140;SDS011;24875;48.436;10.298;2023-05-07T08:41:30;3.45;;;1.60;;
39140;SDS011;24875;48.436;10.298;2023-05-07T08:43:57;4.05;;;1.88;;
39140;SDS011;24875;48.436;10.298;2023-05-07T08:46:24;1.95;;;1.63;;
39140;SDS011;24875;48.436;10.298;2023-05-07T08:48:53;4.07;;;2.00;;
39140;SDS011;24875;48.436;10.298;2023-05-07T08:51:20;3.03;;;2.13;;
39140;SDS011;24875;48.436;10.298;2023-05-07T08:53:48;4.55;;;2.08;;
39140;SDS011;24875;48.436;10.298;2023-05-07T08:56:15;3.65;;;2.05;;
39140;SDS011;24875;48.436;10.298;2023-05-07T08:58:42;5.90;;;2.80;;
39140;SDS011;24875;48.436;10.298;2023-05-07T09:01:09;3.00;;;1.70;;
39140;SDS011;24875;48.436;10.298;2023-05-07T09:03:39;3.35;;;2.03;;
39140;SDS011;24875;48.436;10.298;2023-05-07T09:06:07;2.72;;;1.70;;
39140;SDS011;24875;48.436;10.298;2023-05-07T09:08:34;4.20;;;2.40;;
39140;SDS011;24875;48.436;10.298;2023-05-07T09:11:01;3.55;;;2.00;;
39140;SDS011;24875;48.436;10.298;2023-05-07T09:13:28;3.90;;;2.00;;
39140;SDS011;24875;48.436;10.298;2023-05-07T09:15:55;3.45;;;2.22;;
39140;SDS011;24875;48.436;10.298;2023-05-07T09:18:23;3.67;;;2.10;;
39140;SDS011;24875;48.436;10.298;2023-05-07T09:20:50;4.22;;;2.10;;
39140;SDS011;24875;48.436;10.298;2023-05-07T09:23:18;4.80;;;2.03;;
39140;SDS011;24875;48.436;10.298;2023-05-07T09:25:44;3.08;;;2.15;;
39140;SDS011;24875;48.436;10.298;2023-05-07T09:28:11;2.85;;;1.90;;
39140;SDS011;24875;48.436;10.298;2023-05-07T09:30:37;4.32;;;2.28;;
39140;SDS011;24875;48.436;10.298;2023-05-07T09:33:03;3.22;;;1.90;;
39140;SDS011;24875;48.436;10.298;2023-05-07T09:35:30;4.18;;;2.20;;
39140;SDS011;24875;48.436;10.298;2023-05-07T09:37:57;3.90;;;2.10;;
39140;SDS011;24875;48.436;10.298;2023-05-07T09:40:26;4.53;;;2.47;;
39140;SDS011;24875;48.436;10.298;2023-05-07T09:42:53;5.32;;;2.97;;
39140;SDS011;24875;48.436;10.298;2023-05-07T09:45:24;3.63;;;2.35;;
39140;SDS011;24875;48.436;10.298;2023-05-07T09:47:53;5.38;;;2.28;;
39140;SDS011;24875;48.436;10.298;2023-05-07T09:50:20;4.38;;;2.22;;
39140;SDS011;24875;48.436;10.298;2023-05-07T09:52:51;4.65;;;2.40;;
39140;SDS011;24875;48.436;10.298;2023-05-07T09:55:18;3.17;;;2.20;;
39140;SDS011;24875;48.436;10.298;2023-05-07T09:57:48;3.38;;;1.83;;
39140;SDS011;24875;48.436;10.298;2023-05-07T10:00:16;4.20;;;2.28;;
39140;SDS011;24875;48.436;10.298;2023-05-07T10:02:44;2.35;;;1.65;;
39140;SDS011;24875;48.436;10.298;2023-05-07T10:05:14;3.25;;;2.13;;
39140;SDS011;24875;48.436;10.298;2023-05-07T10:07:41;3.60;;;2.17;;
39140;SDS011;24875;48.436;10.298;2023-05-07T10:10:08;3.83;;;1.88;;
39140;SDS011;24875;48.436;10.298;2023-05-07T10:12:35;3.85;;;2.10;;
39140;SDS011;24875;48.436;10.298;2023-05-07T10:15:06;3.63;;;2.35;;
39140;SDS011;24875;48.436;10.298;2023-05-07T10:17:34;3.08;;;2.28;;
39140;SDS011;24875;48.436;10.298;2023-05-07T10:20:01;3.65;;;2.20;;
39140;SDS011;24875;48.436;10.298;2023-05-07T10:22:29;3.47;;;2.38;;
39140;SDS011;24875;48.436;10.298;2023-05-07T10:25:03;4.60;;;2.67;;
39140;SDS011;24875;48.436;10.298;2023-05-07T10:27:32;3.92;;;2.47;;
39140;SDS011;24875;48.436;10.298;2023-05-07T10:30:00;3.10;;;2.10;;
39140;SDS011;24875;48.436;10.298;2023-05-07T10:32:39;5.25;;;2.28;;
39140;SDS011;24875;48.436;10.298;2023-05-07T10:35:07;5.75;;;2.53;;
39140;SDS011;24875;48.436;10.298;2023-05-07T10:37:38;2.80;;;1.75;;
39140;SDS011;24875;48.436;10.298;2023-05-07T10:40:05;4.47;;;2.20;;
39140;SDS011;24875;48.436;10.298;2023-05-07T10:42:32;3.70;;;2.28;;
39140;SDS011;24875;48.436;10.298;2023-05-07T10:45:11;4.60;;;2.72;;
39140;SDS011;24875;48.436;10.298;2023-05-07T10:50:35;3.17;;;2.05;;
39140;SDS011;24875;48.436;10.298;2023-05-07T10:53:21;3.72;;;2.22;;
39140;SDS011;24875;48.436;10.298;2023-05-07T10:58:52;4.50;;;2.80;;
39140;SDS011;24875;48.436;10.298;2023-05-07T11:04:21;2.80;;;1.70;;
39140;SDS011;24875;48.436;10.298;2023-05-07T11:09:56;2.25;;;1.60;;
39140;SDS011;24875;48.436;10.298;2023-05-07T11:15:14;3.38;;;1.73;;
39140;SDS011;24875;48.436;10.298;2023-05-07T11:18:00;2.08;;;1.40;;
39140;SDS011;24875;48.436;10.298;2023-05-07T11:26:41;1.23;;;1.00;;
39140;SDS011;24875;48.436;10.298;2023-05-07T11:29:13;2.13;;;1.65;;
39140;SDS011;24875;48.436;10.298;2023-05-07T11:31:40;1.25;;;1.00;;
39140;SDS011;24875;48.436;10.298;2023-05-07T11:34:08;1.85;;;1.00;;
39140;SDS011;24875;48.436;10.298;2023-05-07T11:36:40;1.92;;;1.60;;
39140;SDS011;24875;48.436;10.298;2023-05-07T11:39:28;1.50;;;0.93;;
39140;SDS011;24875;48.436;10.298;2023-05-07T11:41:57;1.67;;;1.17;;
39140;SDS011;24875;48.436;10.298;2023-05-07T11:44:24;1.42;;;1.05;;
39140;SDS011;24875;48.436;10.298;2023-05-07T11:46:50;1.05;;;0.77;;
39140;SDS011;24875;48.436;10.298;2023-05-07T11:49:18;2.38;;;1.23;;
39140;SDS011;24875;48.436;10.298;2023-05-07T11:51:45;1.88;;;0.93;;
39140;SDS011;24875;48.436;10.298;2023-05-07T11:54:11;1.65;;;1.13;;
39140;SDS011;24875;48.436;10.298;2023-05-07T11:56:41;1.35;;;1.00;;
39140;SDS011;24875;48.436;10.298;2023-05-07T11:59:08;1.23;;;1.00;;
39140;SDS011;24875;48.436;10.298;2023-05-07T12:01:35;3.53;;;1.00;;
39140;SDS011;24875;48.436;10.298;2023-05-07T12:04:02;2.63;;;1.00;;
39140;SDS011;24875;48.436;10.298;2023-05-07T12:06:30;0.90;;;0.70;;
39140;SDS011;24875;48.436;10.298;2023-05-07T12:08:57;1.10;;;0.80;;
39140;SDS011;24875;48.436;10.298;2023-05-07T12:11:24;0.98;;;0.88;;
39140;SDS011;24875;48.436;10.298;2023-05-07T12:13:51;2.95;;;1.27;;
39140;SDS011;24875;48.436;10.298;2023-05-07T12:16:19;1.50;;;1.02;;
39140;SDS011;24875;48.436;10.298;2023-05-07T12:18:46;1.77;;;1.00;;
39140;SDS011;24875;48.436;10.298;2023-05-07T12:21:13;0.90;;;0.70;;
39140;SDS011;24875;48.436;10.298;2023-05-07T12:23:43;1.35;;;1.05;;
39140;SDS011;24875;48.436;10.298;2023-05-07T12:26:10;1.20;;;1.02;;
39140;SDS011;24875;48.436;10.298;2023-05-07T12:28:37;0.90;;;0.82;;
39140;SDS011;24875;48.436;10.298;2023-05-07T12:31:04;0.82;;;0.60;;
39140;SDS011;24875;48.436;10.298;2023-05-07T12:33:31;0.85;;;0.82;;
39140;SDS011;24875;48.436;10.298;2023-05-07T12:35:58;2.53;;;1.20;;
39140;SDS011;24875;48.436;10.298;2023-05-07T12:38:32;1.13;;;0.77;;
39140;SDS011;24875;48.436;10.298;2023-05-07T12:41:02;0.85;;;0.80;;
39140;SDS011;24875;48.436;10.298;2023-05-07T12:43:29;1.05;;;0.90;;
39140;SDS011;24875;48.436;10.298;2023-05-07T12:45:56;1.23;;;0.90;;
39140;SDS011;24875;48.436;10.298;2023-05-07T12:48:25;1.33;;;1.00;;
39140;SDS011;24875;48.436;10.298;2023-05-07T12:50:53;1.08;;;0.82;;
39140;SDS011;24875;48.436;10.298;2023-05-07T12:53:20;0.95;;;0.80;;
39140;SDS011;24875;48.436;10.298;2023-05-07T12:55:48;1.83;;;1.15;;
39140;SDS011;24875;48.436;10.298;2023-05-07T12:58:18;1.45;;;0.80;;
39140;SDS011;24875;48.436;10.298;2023-05-07T13:00:47;1.30;;;1.00;;
39140;SDS011;24875;48.436;10.298;2023-05-07T13:03:20;11.75;;;1.35;;
39140;SDS011;24875;48.436;10.298;2023-05-07T13:05:48;4.38;;;0.80;;
39140;SDS011;24875;48.436;10.298;2023-05-07T13:08:23;1.38;;;1.00;;
39140;SDS011;24875;48.436;10.298;2023-05-07T13:10:50;1.83;;;1.13;;
39140;SDS011;24875;48.436;10.298;2023-05-07T13:13:18;1.17;;;1.00;;
39140;SDS011;24875;48.436;10.298;2023-05-07T13:15:45;1.00;;;0.80;;
39140;SDS011;24875;48.436;10.298;2023-05-07T13:18:11;1.38;;;0.80;;
39140;SDS011;24875;48.436;10.298;2023-05-07T13:20:37;1.83;;;0.90;;
39140;SDS011;24875;48.436;10.298;2023-05-07T13:23:04;1.75;;;0.80;;
39140;SDS011;24875;48.436;10.298;2023-05-07T13:25:30;1.80;;;0.80;;
39140;SDS011;24875;48.436;10.298;2023-05-07T13:27:57;1.17;;;1.00;;
39140;SDS011;24875;48.436;10.298;2023-05-07T13:30:25;1.10;;;0.90;;
39140;SDS011;24875;48.436;10.298;2023-05-07T13:32:52;1.17;;;0.90;;
39140;SDS011;24875;48.436;10.298;2023-05-07T13:35:21;1.85;;;1.25;;
39140;SDS011;24875;48.436;10.298;2023-05-07T13:37:47;0.95;;;0.70;;
39140;SDS011;24875;48.436;10.298;2023-05-07T13:40:14;3.80;;;1.08;;
39140;SDS011;24875;48.436;10.298;2023-05-07T13:42:41;1.30;;;1.10;;
39140;SDS011;24875;48.436;10.298;2023-05-07T13:45:08;1.17;;;0.82;;
39140;SDS011;24875;48.436;10.298;2023-05-07T13:47:36;0.80;;;0.80;;
39140;SDS011;24875;48.436;10.298;2023-05-07T13:50:03;1.30;;;0.95;;
39140;SDS011;24875;48.436;10.298;2023-05-07T13:52:30;2.30;;;0.90;;
39140;SDS011;24875;48.436;10.298;2023-05-07T13:54:57;1.27;;;0.95;;
39140;SDS011;24875;48.436;10.298;2023-05-07T13:57:24;1.00;;;0.90;;
39140;SDS011;24875;48.436;10.298;2023-05-07T13:59:50;1.25;;;1.05;;
39140;SDS011;24875;48.436;10.298;2023-05-07T14:02:17;2.38;;;1.15;;
39140;SDS011;24875;48.436;10.298;2023-05-07T14:04:45;2.13;;;1.27;;
39140;SDS011;24875;48.436;10.298;2023-05-07T14:07:11;1.08;;;0.80;;
39140;SDS011;24875;48.436;10.298;2023-05-07T14:09:37;2.03;;;1.38;;
39140;SDS011;24875;48.436;10.298;2023-05-07T14:12:04;1.67;;;1.10;;
39140;SDS011;24875;48.436;10.298;2023-05-07T14:14:31;3.35;;;1.20;;
39140;SDS011;24875;48.436;10.298;2023-05-07T14:16:58;1.33;;;0.85;;
39140;SDS011;24875;48.436;10.298;2023-05-07T14:19:24;1.40;;;0.98;;
39140;SDS011;24875;48.436;10.298;2023-05-07T14:21:52;1.25;;;1.00;;
39140;SDS011;24875;48.436;10.298;2023-05-07T14:24:19;1.75;;;1.10;;
39140;SDS011;24875;48.436;10.298;2023-05-07T14:26:46;1.55;;;1.10;;
39140;SDS011;24875;48.436;10.298;2023-05-07T14:29:12;2.30;;;1.30;;
39140;SDS011;24875;48.436;10.298;2023-05-07T14:31:40;2.13;;;1.00;;
39140;SDS011;24875;48.436;10.298;2023-05-07T14:34:07;2.65;;;0.95;;
39140;SDS011;24875;48.436;10.298;2023-05-07T14:36:33;1.85;;;1.20;;
39140;SDS011;24875;48.436;10.298;2023-05-07T14:39:01;2.28;;;1.45;;
39140;SDS011;24875;48.436;10.298;2023-05-07T14:41:27;1.80;;;1.23;;
39140;SDS011;24875;48.436;10.298;2023-05-07T14:43:54;1.08;;;0.98;;
39140;SDS011;24875;48.436;10.298;2023-05-07T14:46:20;3.22;;;1.90;;
39140;SDS011;24875;48.436;10.298;2023-05-07T14:48:47;1.67;;;1.08;;
39140;SDS011;24875;48.436;10.298;2023-05-07T14:51:13;2.85;;;1.42;;
39140;SDS011;24875;48.436;10.298;2023-05-07T14:53:40;2.70;;;1.45;;
39140;SDS011;24875;48.436;10.298;2023-05-07T14:56:09;1.90;;;1.27;;